createdAt,value
2017-08-31T00:01:31.080Z,20.00
2017-08-31T00:04:01.017Z,20.00
2017-08-31T00:06:32.840Z,20.00
2017-08-31T00:08:59.671Z,20.00
2017-08-31T00:11:30.929Z,20.00
2017-08-31T00:14:10.516Z,20.00
2017-08-31T00:16:38.671Z,20.10
2017-08-31T00:19:05.306Z,20.10
2017-08-31T00:21:34.821Z,20.10
2017-08-31T00:24:02.744Z,20.10
2017-08-31T00:26:29.297Z,20.10
2017-08-31T00:28:58.331Z,20.10
2017-08-31T00:31:33.481Z,20.00
2017-08-31T00:34:04.430Z,20.00
2017-08-31T00:36:32.860Z,20.10
2017-08-31T00:38:59.463Z,20.10
2017-08-31T00:41:57.082Z,20.00
2017-08-31T00:44:33.800Z,20.00
2017-08-31T00:47:18.801Z,20.00
2017-08-31T00:50:03.714Z,20.00
2017-08-31T00:52:32.008Z,20.00
2017-08-31T00:55:03.710Z,20.10
2017-08-31T00:57:33.322Z,20.10
2017-08-31T01:00:04.931Z,20.10
2017-08-31T01:02:33.894Z,20.10
2017-08-31T01:05:04.735Z,20.00
2017-08-31T01:07:34.091Z,20.00
2017-08-31T01:10:12.239Z,20.10
2017-08-31T01:12:56.097Z,20.10
2017-08-31T01:15:27.129Z,20.00
2017-08-31T01:18:00.096Z,20.10
2017-08-31T01:20:34.730Z,20.10
2017-08-31T01:23:03.451Z,20.20
2017-08-31T01:25:41.122Z,20.10
2017-08-31T01:28:09.460Z,20.10
2017-08-31T01:30:36.060Z,20.20
2017-08-31T01:33:09.266Z,19.80
2017-08-31T01:35:35.598Z,20.20
2017-08-31T01:38:03.860Z,20.10
2017-08-31T01:40:34.065Z,20.20
2017-08-31T01:43:04.777Z,20.10
2017-08-31T01:45:36.177Z,20.00
2017-08-31T01:48:03.992Z,19.80
2017-08-31T01:50:32.414Z,19.70
2017-08-31T01:53:03.319Z,19.70
2017-08-31T01:55:33.410Z,19.70
2017-08-31T01:58:27.964Z,19.70
2017-08-31T02:01:02.223Z,19.50
2017-08-31T02:03:33.029Z,19.40
2017-08-31T02:06:04.464Z,19.40
2017-08-31T02:08:33.264Z,19.30
2017-08-31T02:11:01.127Z,19.20
2017-08-31T02:13:27.779Z,19.30
2017-08-31T02:16:02.899Z,19.30
2017-08-31T02:18:33.469Z,19.20
2017-08-31T02:21:02.585Z,18.90
2017-08-31T02:23:33.294Z,19.10
2017-08-31T02:26:01.723Z,19.10
2017-08-31T02:28:33.337Z,19.10
2017-08-31T02:31:03.230Z,19.10
2017-08-31T02:33:29.914Z,19.00
2017-08-31T02:36:03.669Z,19.10
2017-08-31T02:38:33.144Z,19.10
2017-08-31T02:41:03.171Z,19.00
2017-08-31T02:43:32.543Z,19.00
2017-08-31T02:46:01.688Z,19.10
2017-08-31T02:48:35.138Z,19.00
2017-08-31T02:51:03.723Z,18.90
2017-08-31T02:53:34.648Z,18.90
2017-08-31T02:56:03.976Z,18.90
2017-08-31T02:58:34.498Z,18.60
2017-08-31T03:01:03.717Z,18.60
2017-08-31T03:03:32.871Z,18.50
2017-08-31T03:06:02.648Z,18.50
2017-08-31T03:08:31.668Z,18.20
2017-08-31T03:11:13.074Z,18.00
2017-08-31T03:13:55.654Z,18.00
2017-08-31T03:16:37.566Z,18.00
2017-08-31T03:21:59.953Z,17.90
2017-08-31T03:24:40.998Z,17.80
2017-08-31T03:27:09.661Z,17.80
2017-08-31T03:29:38.896Z,17.40
2017-08-31T03:32:05.794Z,17.40
2017-08-31T03:34:33.691Z,17.10
2017-08-31T03:37:34.980Z,17.20
2017-08-31T03:40:03.845Z,17.10
2017-08-31T03:42:44.793Z,17.20
2017-08-31T03:45:30.004Z,17.30
2017-08-31T03:47:58.981Z,17.10
2017-08-31T03:50:35.053Z,17.20
2017-08-31T03:53:03.773Z,17.20
2017-08-31T03:55:34.479Z,17.10
2017-08-31T03:58:04.651Z,17.20
2017-08-31T04:00:31.190Z,17.10
2017-08-31T04:03:02.132Z,17.20
2017-08-31T04:05:37.050Z,17.00
2017-08-31T04:08:27.651Z,16.80
2017-08-31T04:11:29.524Z,16.80
2017-08-31T04:14:13.262Z,16.80
2017-08-31T04:16:41.780Z,16.80
2017-08-31T04:22:35.557Z,16.70
2017-08-31T04:25:02.847Z,16.80
2017-08-31T04:27:35.119Z,16.80
2017-08-31T04:30:01.739Z,16.80
2017-08-31T04:32:33.325Z,16.80
2017-08-31T04:35:04.277Z,16.80
2017-08-31T04:37:34.149Z,16.80
2017-08-31T04:40:04.791Z,16.80
2017-08-31T04:42:33.540Z,16.80
2017-08-31T04:45:04.852Z,16.70
2017-08-31T04:47:34.799Z,16.80
2017-08-31T04:50:04.792Z,16.70
2017-08-31T04:52:33.642Z,16.90
2017-08-31T04:55:07.387Z,16.90
2017-08-31T04:57:35.048Z,16.90
2017-08-31T05:00:03.842Z,16.90
2017-08-31T05:02:33.877Z,16.90
2017-08-31T05:05:03.939Z,16.90
2017-08-31T05:07:34.586Z,16.70
2017-08-31T05:10:04.009Z,16.90
2017-08-31T05:12:32.693Z,16.90
2017-08-31T05:15:25.871Z,16.90
2017-08-31T05:18:02.773Z,16.60
2017-08-31T05:20:41.828Z,16.50
2017-08-31T05:23:43.854Z,16.40
2017-08-31T05:26:27.839Z,16.40
2017-08-31T05:29:03.502Z,16.30
2017-08-31T05:31:33.974Z,16.30
2017-08-31T05:34:05.625Z,16.30
2017-08-31T05:36:42.988Z,16.20
2017-08-31T05:39:32.479Z,16.20
2017-08-31T05:42:04.206Z,16.10
2017-08-31T05:44:33.187Z,16.10
2017-08-31T05:47:04.296Z,16.10
2017-08-31T05:49:52.852Z,16.00
2017-08-31T05:55:02.642Z,15.50
2017-08-31T05:57:33.591Z,15.70
2017-08-31T06:00:03.498Z,15.60
2017-08-31T06:02:33.592Z,15.70
2017-08-31T06:05:04.196Z,15.40
2017-08-31T06:07:34.377Z,15.70
2017-08-31T06:10:03.379Z,15.60
2017-08-31T06:12:32.592Z,15.40
2017-08-31T06:15:01.025Z,15.60
2017-08-31T06:17:30.380Z,15.70
2017-08-31T06:20:01.878Z,15.60
2017-08-31T06:22:34.409Z,15.60
2017-08-31T06:25:03.244Z,15.50
2017-08-31T06:27:33.601Z,15.50
2017-08-31T06:30:01.137Z,15.50
2017-08-31T06:32:36.836Z,15.50
2017-08-31T06:35:04.198Z,15.40
2017-08-31T06:37:32.254Z,15.40
2017-08-31T06:40:00.241Z,15.40
2017-08-31T06:42:29.155Z,15.40
2017-08-31T06:45:02.497Z,15.50
2017-08-31T06:47:31.084Z,15.60
2017-08-31T06:49:59.302Z,15.50
2017-08-31T06:52:29.172Z,15.50
2017-08-31T06:55:02.173Z,15.60
2017-08-31T06:57:31.292Z,15.60
2017-08-31T07:00:02.669Z,15.60
2017-08-31T07:02:31.786Z,15.60
2017-08-31T07:05:01.210Z,15.60
2017-08-31T07:07:37.150Z,15.40
2017-08-31T07:10:03.663Z,15.40
2017-08-31T07:12:31.191Z,15.40
2017-08-31T07:15:01.426Z,15.50
2017-08-31T07:17:33.077Z,15.50
2017-08-31T07:20:07.975Z,15.60
2017-08-31T07:22:36.270Z,15.20
2017-08-31T07:25:03.079Z,15.60
2017-08-31T07:27:32.443Z,15.70
2017-08-31T07:30:02.274Z,15.80
2017-08-31T07:32:52.513Z,15.90
2017-08-31T07:35:53.943Z,15.90
2017-08-31T07:38:30.558Z,15.80
2017-08-31T07:41:03.498Z,15.70
2017-08-31T07:43:32.663Z,15.70
2017-08-31T07:49:04.300Z,15.40
2017-08-31T07:51:38.746Z,15.60
2017-08-31T07:54:05.557Z,15.70
2017-08-31T07:56:34.230Z,15.80
2017-08-31T07:59:01.893Z,15.80
2017-08-31T08:01:32.901Z,15.80
2017-08-31T08:08:02.703Z,15.90
2017-08-31T08:34:07.825Z,16.00
2017-08-31T08:43:41.178Z,16.10
2017-08-31T08:46:08.822Z,16.20
2017-08-31T08:48:35.567Z,16.20
2017-08-31T08:51:03.367Z,16.30
2017-08-31T08:53:31.536Z,16.30
2017-08-31T08:56:01.070Z,16.30
2017-08-31T08:58:34.361Z,16.30
2017-08-31T09:01:03.542Z,16.40
2017-08-31T09:06:37.183Z,16.40
2017-08-31T09:09:06.238Z,16.50
2017-08-31T09:15:16.163Z,16.40
2017-08-31T09:18:05.155Z,16.40
2017-08-31T09:20:33.829Z,16.50
2017-08-31T09:23:01.883Z,16.50
2017-08-31T09:31:36.582Z,16.50
2017-08-31T09:34:13.562Z,16.50
2017-08-31T09:36:40.072Z,16.50
2017-08-31T09:39:06.702Z,16.50
2017-08-31T09:41:35.070Z,16.30
2017-08-31T09:47:05.200Z,16.40
2017-08-31T09:49:34.373Z,16.40
2017-08-31T09:52:32.596Z,16.40
2017-08-31T09:55:33.906Z,16.80
2017-08-31T09:58:04.486Z,16.40
2017-08-31T10:10:07.766Z,16.70
2017-08-31T10:16:06.663Z,16.80
2017-08-31T10:18:33.450Z,16.90
2017-08-31T10:21:09.635Z,17.10
2017-08-31T10:23:36.256Z,16.90
2017-08-31T10:26:03.761Z,17.30
2017-08-31T10:32:02.575Z,17.10
2017-08-31T10:34:57.189Z,16.70
2017-08-31T10:37:40.315Z,16.80
2017-08-31T10:40:08.694Z,16.80
2017-08-31T10:42:35.283Z,16.50
2017-08-31T10:45:04.062Z,16.40
2017-08-31T10:47:40.656Z,16.50
2017-08-31T10:50:12.333Z,16.40
2017-08-31T10:52:38.906Z,16.40
2017-08-31T10:55:05.673Z,16.60
2017-08-31T11:00:40.918Z,16.80
2017-08-31T11:03:30.956Z,16.80
2017-08-31T11:18:41.096Z,16.90
2017-08-31T11:21:08.945Z,16.90
2017-08-31T11:23:36.436Z,16.70
2017-08-31T11:26:03.325Z,16.60
2017-08-31T11:31:43.947Z,16.10
2017-08-31T11:34:43.595Z,16.30
2017-08-31T11:40:13.617Z,16.70
2017-08-31T11:46:14.769Z,16.70
2017-08-31T11:49:04.429Z,16.70
2017-08-31T11:52:05.719Z,16.70
2017-08-31T11:54:33.580Z,16.70
2017-08-31T11:57:13.985Z,16.90
2017-08-31T12:00:34.971Z,16.90
2017-08-31T12:09:04.236Z,16.90
2017-08-31T12:11:34.257Z,17.10
2017-08-31T12:14:05.217Z,17.20
2017-08-31T12:22:45.799Z,17.70
2017-08-31T12:25:43.314Z,18.00
2017-08-31T12:28:10.009Z,18.20
2017-08-31T12:30:36.669Z,18.30
2017-08-31T12:33:06.913Z,18.20
2017-08-31T12:35:41.586Z,18.40
2017-08-31T12:38:08.329Z,18.50
2017-08-31T12:40:34.818Z,18.90
2017-08-31T12:43:01.666Z,18.80
2017-08-31T12:45:38.287Z,18.90
2017-08-31T12:48:06.527Z,18.80
2017-08-31T12:50:33.088Z,18.70
2017-08-31T12:53:02.325Z,18.30
2017-08-31T12:55:42.948Z,18.40
2017-08-31T12:58:11.953Z,18.40
2017-08-31T13:00:38.245Z,18.30
2017-08-31T13:03:04.506Z,18.50
2017-08-31T13:05:45.616Z,18.00
2017-08-31T13:08:14.113Z,18.40
2017-08-31T13:10:40.377Z,18.20
2017-08-31T13:13:12.719Z,18.50
2017-08-31T13:16:00.225Z,18.30
2017-08-31T13:18:43.047Z,18.20
2017-08-31T13:21:10.335Z,18.30
2017-08-31T13:23:36.801Z,18.20
2017-08-31T13:26:04.231Z,18.20
2017-08-31T13:28:51.996Z,18.30
2017-08-31T13:34:03.634Z,18.50
2017-08-31T13:36:32.200Z,18.60
2017-08-31T13:39:02.947Z,18.70
2017-08-31T13:41:39.484Z,18.40
2017-08-31T13:44:09.259Z,19.20
2017-08-31T13:46:35.728Z,19.10
2017-08-31T13:49:02.243Z,19.20
2017-08-31T13:51:56.269Z,19.20
2017-08-31T13:54:39.507Z,19.40
2017-08-31T13:57:12.711Z,19.40
2017-08-31T13:59:39.011Z,19.60
2017-08-31T14:02:05.303Z,19.60
2017-08-31T14:04:32.218Z,19.60
2017-08-31T14:07:11.362Z,19.60
2017-08-31T14:09:38.985Z,19.60
2017-08-31T14:12:05.470Z,19.60
2017-08-31T14:14:32.193Z,19.90
2017-08-31T14:17:01.399Z,20.00
2017-08-31T14:19:40.021Z,19.90
2017-08-31T14:22:07.229Z,20.00
2017-08-31T14:24:33.601Z,20.00
2017-08-31T14:27:01.842Z,19.60
2017-08-31T14:29:41.266Z,19.50
2017-08-31T14:32:08.254Z,19.00
2017-08-31T14:34:34.684Z,18.80
2017-08-31T14:37:02.134Z,18.10
2017-08-31T14:39:31.561Z,18.30
2017-08-31T14:42:11.127Z,18.10
2017-08-31T14:44:41.181Z,18.00
2017-08-31T14:47:07.648Z,18.10
2017-08-31T14:49:34.501Z,18.10
2017-08-31T14:52:04.538Z,18.40
2017-08-31T14:57:42.230Z,18.40
2017-08-31T15:00:29.156Z,18.30
2017-08-31T15:03:06.695Z,18.80
2017-08-31T15:05:39.065Z,19.00
2017-08-31T15:08:06.801Z,19.10
2017-08-31T15:10:33.496Z,19.10
2017-08-31T15:13:02.353Z,19.00
2017-08-31T15:15:32.154Z,19.10
2017-08-31T15:17:59.645Z,19.10
2017-08-31T15:20:37.282Z,19.20
2017-08-31T15:23:04.785Z,19.40
2017-08-31T15:25:31.772Z,19.50
2017-08-31T15:28:03.118Z,19.90
2017-08-31T15:30:33.142Z,19.50
2017-08-31T15:33:01.769Z,19.30
2017-08-31T15:35:30.638Z,19.20
2017-08-31T15:37:58.219Z,19.30
2017-08-31T15:40:26.653Z,19.10
2017-08-31T15:42:55.689Z,19.30
2017-08-31T15:45:25.378Z,19.30
2017-08-31T15:47:57.259Z,19.30
2017-08-31T15:50:27.183Z,19.30
2017-08-31T15:53:03.419Z,19.30
2017-08-31T15:55:31.109Z,19.30
2017-08-31T15:58:00.679Z,19.40
2017-08-31T16:00:31.370Z,19.40
2017-08-31T16:03:02.445Z,19.50
2017-08-31T16:05:31.940Z,19.60
2017-08-31T16:08:12.943Z,19.70
2017-08-31T16:10:39.473Z,19.80
2017-08-31T16:13:06.114Z,19.80
2017-08-31T16:15:33.226Z,19.70
2017-08-31T16:18:08.093Z,19.50
2017-08-31T16:20:36.041Z,19.50
2017-08-31T16:23:02.635Z,19.30
2017-08-31T16:25:30.137Z,18.70
2017-08-31T16:27:56.690Z,19.10
2017-08-31T16:30:26.269Z,19.20
2017-08-31T16:32:53.339Z,19.00
2017-08-31T16:35:23.741Z,19.10
2017-08-31T16:37:57.505Z,19.10
2017-08-31T16:40:29.442Z,19.30
2017-08-31T16:43:03.677Z,19.20
2017-08-31T16:45:36.315Z,19.30
2017-08-31T16:48:03.651Z,19.20
2017-08-31T16:50:30.252Z,19.30
2017-08-31T16:52:58.239Z,19.20
2017-08-31T16:55:31.990Z,19.20
2017-08-31T16:58:15.088Z,19.20
2017-08-31T17:01:00.110Z,19.30
2017-08-31T17:03:35.042Z,19.30
2017-08-31T17:06:04.011Z,19.30
2017-08-31T17:08:34.023Z,19.20
2017-08-31T17:11:03.994Z,19.20
2017-08-31T17:13:34.494Z,19.10
2017-08-31T17:16:04.099Z,19.20
2017-08-31T17:18:36.854Z,19.30
2017-08-31T17:21:04.196Z,19.20
2017-08-31T17:23:34.097Z,19.10
2017-08-31T17:26:24.947Z,19.20
2017-08-31T17:28:57.618Z,19.10
2017-08-31T17:31:31.110Z,19.00
2017-08-31T17:34:04.970Z,19.00
2017-08-31T17:36:32.435Z,19.10
2017-08-31T17:39:04.668Z,19.10
2017-08-31T17:41:33.420Z,19.10
2017-08-31T17:44:23.531Z,19.00
2017-08-31T17:47:24.475Z,19.00
2017-08-31T17:50:03.323Z,18.70
2017-08-31T17:52:38.844Z,18.60
2017-08-31T17:55:07.948Z,18.50
2017-08-31T17:57:34.753Z,18.60
2017-08-31T18:00:03.564Z,18.70
2017-08-31T18:02:36.526Z,18.70
2017-08-31T18:05:06.434Z,18.50
2017-08-31T18:07:33.004Z,18.40
2017-08-31T18:10:04.146Z,18.50
2017-08-31T18:12:38.834Z,18.40
2017-08-31T18:15:05.485Z,18.30
2017-08-31T18:17:31.899Z,18.30
2017-08-31T18:20:01.886Z,18.10
2017-08-31T18:22:29.892Z,18.00
2017-08-31T18:24:58.436Z,18.00
2017-08-31T18:27:29.251Z,17.90
2017-08-31T18:29:58.321Z,17.90
2017-08-31T18:32:26.116Z,17.80
2017-08-31T18:35:01.221Z,17.70
2017-08-31T18:37:29.661Z,17.60
2017-08-31T18:39:59.113Z,17.50
2017-08-31T18:42:26.944Z,17.20
2017-08-31T18:44:57.864Z,17.10
2017-08-31T18:47:28.146Z,17.10
2017-08-31T18:49:57.961Z,17.10
2017-08-31T18:52:31.122Z,17.20
2017-08-31T18:54:59.057Z,17.10
2017-08-31T18:57:32.437Z,17.10
2017-08-31T19:00:02.428Z,17.10
2017-08-31T19:02:32.962Z,16.90
2017-08-31T19:05:01.016Z,16.90
2017-08-31T19:07:30.422Z,16.70
2017-08-31T19:10:00.197Z,16.70
2017-08-31T19:12:29.573Z,16.70
2017-08-31T19:15:00.248Z,16.70
2017-08-31T19:17:32.632Z,16.60
2017-08-31T19:20:03.905Z,16.60
2017-08-31T19:22:33.061Z,16.60
2017-08-31T19:25:02.253Z,16.50
2017-08-31T19:27:31.823Z,16.40
2017-08-31T19:30:00.045Z,16.30
2017-08-31T19:32:32.746Z,16.30
2017-08-31T19:35:01.689Z,16.40
2017-08-31T19:37:31.116Z,16.40
2017-08-31T19:40:00.929Z,16.30
2017-08-31T19:42:29.226Z,16.20
2017-08-31T19:44:59.538Z,16.20
2017-08-31T19:47:28.535Z,16.10
2017-08-31T19:49:56.585Z,16.10
2017-08-31T19:52:24.249Z,16.00
2017-08-31T19:54:53.873Z,16.00
2017-08-31T19:57:28.719Z,16.00
2017-08-31T20:00:00.283Z,15.90
2017-08-31T20:02:29.935Z,15.70
2017-08-31T20:04:59.110Z,15.80
2017-08-31T20:07:27.136Z,15.80
2017-08-31T20:09:56.543Z,15.80
2017-08-31T20:12:24.276Z,15.70
2017-08-31T20:14:52.518Z,15.70
2017-08-31T20:17:22.981Z,15.50
2017-08-31T20:19:52.988Z,15.60
2017-08-31T20:22:22.790Z,15.60
2017-08-31T20:24:52.098Z,15.50
2017-08-31T20:27:22.673Z,15.60
2017-08-31T20:29:54.650Z,15.50
2017-08-31T20:32:22.193Z,15.40
2017-08-31T20:34:51.822Z,15.40
2017-08-31T20:37:23.457Z,15.40
2017-08-31T20:39:52.230Z,15.40
2017-08-31T20:42:25.418Z,15.30
2017-08-31T20:44:56.645Z,15.20
2017-08-31T20:47:27.323Z,15.10
2017-08-31T20:49:58.736Z,15.10
2017-08-31T20:52:28.038Z,15.10
2017-08-31T20:55:00.608Z,15.10
2017-08-31T20:57:30.863Z,14.90
2017-08-31T21:00:03.899Z,15.10
2017-08-31T21:02:35.841Z,15.10
2017-08-31T21:05:03.839Z,15.10
2017-08-31T21:07:31.909Z,15.10
2017-08-31T21:10:06.039Z,15.10
2017-08-31T21:12:35.123Z,15.00
2017-08-31T21:15:03.990Z,15.00
2017-08-31T21:17:34.901Z,14.90
2017-08-31T21:20:06.358Z,14.90
2017-08-31T21:22:35.970Z,14.80
2017-08-31T21:25:02.431Z,14.70
2017-08-31T21:27:30.764Z,14.70
2017-08-31T21:30:03.543Z,14.70
2017-08-31T21:32:31.489Z,14.70
2017-08-31T21:35:03.530Z,14.70
2017-08-31T21:37:32.152Z,14.60
2017-08-31T21:40:00.751Z,14.60
2017-08-31T21:42:30.426Z,14.60
2017-08-31T21:44:59.110Z,14.60
2017-08-31T21:47:30.274Z,14.60
2017-08-31T21:50:03.071Z,14.60
2017-08-31T21:52:33.534Z,14.50
2017-08-31T21:55:04.306Z,14.50
2017-08-31T21:57:35.426Z,14.40
2017-08-31T22:00:04.141Z,14.40
2017-08-31T22:02:34.101Z,14.40
2017-08-31T22:05:06.784Z,14.40
2017-08-31T22:07:35.395Z,14.30
2017-08-31T22:10:04.289Z,14.30
2017-08-31T22:12:33.583Z,14.40
2017-08-31T22:15:00.843Z,14.30
2017-08-31T22:17:32.709Z,14.30
2017-08-31T22:20:05.193Z,14.20
2017-08-31T22:22:35.543Z,14.20
2017-08-31T22:25:03.504Z,14.30
2017-08-31T22:27:35.326Z,14.30
2017-08-31T22:30:04.559Z,14.30
2017-08-31T22:32:31.170Z,14.30
2017-08-31T22:35:00.246Z,13.70
2017-08-31T22:37:31.948Z,14.20
2017-08-31T22:40:02.889Z,14.20
2017-08-31T22:42:33.390Z,14.10
2017-08-31T22:45:05.925Z,14.10
2017-08-31T22:47:33.811Z,14.20
2017-08-31T22:50:04.692Z,14.10
2017-08-31T22:52:32.557Z,14.00
2017-08-31T22:55:12.913Z,14.00
2017-08-31T22:57:55.689Z,14.10
2017-08-31T23:00:29.362Z,14.10
2017-08-31T23:03:02.930Z,14.20
2017-08-31T23:05:32.944Z,14.10
2017-08-31T23:08:03.697Z,14.10
2017-08-31T23:10:34.469Z,14.10
2017-08-31T23:13:04.191Z,14.20
2017-08-31T23:15:33.852Z,14.10
2017-08-31T23:18:00.352Z,14.10
2017-08-31T23:20:30.052Z,14.40
2017-08-31T23:23:02.818Z,14.10
2017-08-31T23:25:33.455Z,14.10
2017-08-31T23:28:02.269Z,14.10
2017-08-31T23:30:31.195Z,14.10
2017-08-31T23:33:02.955Z,13.90
2017-08-31T23:35:33.237Z,13.80
2017-08-31T23:37:59.705Z,13.90
2017-08-31T23:40:30.827Z,14.00
2017-08-31T23:43:03.326Z,13.90
2017-08-31T23:45:33.013Z,13.60
2017-08-31T23:48:03.697Z,13.60
2017-08-31T23:50:35.275Z,13.70
2017-08-31T23:53:03.678Z,13.70
2017-08-31T23:55:33.446Z,13.70
2017-08-31T23:58:03.308Z,13.80
